This is the latest recevied weather packets stored in our database for station/object K7ZQU-7. If no packets are shown the sender has not sent any weather packets the latest 10 day(s).
| Time | Temp. | Humidity | Pressure | Rain* | Wind** | Luminosity | Snow |
|---|---|---|---|---|---|---|---|
| 1778007423 | 18.33° C | 54% | 1014.5 hPa | 0 mm | 2.24 m/s, 330° | - | - |
| 1778004727 | 16.11° C | 61% | 1014.1 hPa | 0 mm | 1.34 m/s, 336° | - | - |
| 1778002630 | 14.44° C | 69% | 1013.8 hPa | 0 mm | 0.89 m/s, 305° | - | - |
| 1778002332 | 14.44° C | 70% | 1013.9 hPa | 0 mm | 1.79 m/s, 319° | - | - |
| 1778002030 | 13.89° C | 70% | 1013.8 hPa | 0 mm | 0.45 m/s, 278° | - | - |
| 1778001432 | 13.89° C | 70% | 1013.7 hPa | 0 mm | 0.89 m/s, 323° | - | - |
| 1778001133 | 13.89° C | 71% | 1013.7 hPa | 0 mm | 1.34 m/s, 309° | - | - |
| 1778000834 | 13.33° C | 73% | 1013.6 hPa | 0 mm | 0.89 m/s, 312° | - | - |
| 1777999034 | 12.22° C | 77% | 1013.4 hPa | 0 mm | 1.34 m/s, 314° | - | - |
| 1777998436 | 11.67° C | 78% | 1013.3 hPa | 0 mm | 1.34 m/s, 328° | - | - |
| 1777997838 | 11.67° C | 80% | 1013.3 hPa | 0 mm | 0 m/s | - | - |
| 1777996341 | 10.56° C | 83% | 1013.3 hPa | 0 mm | 0 m/s | - | - |
| 1777995441 | 9.44° C | 85% | 1013.1 hPa | 0 mm | 2.24 m/s, 270° | - | - |
| 1777994843 | 9.44° C | 86% | 1013 hPa | 0 mm | 0.45 m/s, 288° | - | - |
| 1777993644 | 8.89° C | 88% | 1013 hPa | 0 mm | 0.89 m/s, 359° | - | - |
| 1777991847 | 8.33° C | 92% | 1012.8 hPa | 0 mm | 0.45 m/s, 304° | - | - |
| 1777991546 | 8.33° C | 92% | 1013 hPa | 0 mm | 0 m/s | - | - |
| 1777991246 | 8.33° C | 93% | 1012.8 hPa | 0 mm | 1.34 m/s, 323° | - | - |
| 1777990649 | 8.33° C | 93% | 1012.7 hPa | 0 mm | 1.79 m/s, 312° | - | - |
| 1777990048 | 8.33° C | 93% | 1012.7 hPa | 0 mm | 0.45 m/s, 198° | - | - |
| 1777989450 | 7.78° C | 93% | 1012.6 hPa | 0 mm | 0.45 m/s, 311° | - | - |
| 1777989151 | 8.33° C | 93% | 1012.6 hPa | 0 mm | 1.79 m/s, 305° | - | - |
| 1777988852 | 8.33° C | 92% | 1012.6 hPa | 0 mm | 0.89 m/s, 271° | - | - |
| 1777988251 | 7.78° C | 92% | 1012.5 hPa | 0 mm | 1.34 m/s, 290° | - | - |
| 1777987952 | 7.78° C | 92% | 1012.4 hPa | 0 mm | 0.89 m/s, 300° | - | - |
* Rain latest hour (hover to see other rain measurements)
** Current wind speed in m/s (hover to see current wind gust speed)